sensor_id;sensor_type;location;lat;lon;timestamp;P1;durP1;ratioP1;P2;durP2;ratioP2
17504;SDS011;8870;50.950;11.762;2022-07-29T00:04:56;3.13;;;1.00;;
17504;SDS011;8870;50.950;11.762;2022-07-29T00:10:04;3.22;;;0.80;;
17504;SDS011;8870;50.950;11.762;2022-07-29T00:15:09;5.65;;;0.80;;
17504;SDS011;8870;50.950;11.762;2022-07-29T00:20:14;4.13;;;0.80;;
17504;SDS011;8870;50.950;11.762;2022-07-29T00:25:22;4.57;;;0.90;;
17504;SDS011;8870;50.950;11.762;2022-07-29T00:30:27;3.00;;;0.80;;
17504;SDS011;8870;50.950;11.762;2022-07-29T00:35:33;3.45;;;0.85;;
17504;SDS011;8870;50.950;11.762;2022-07-29T00:40:52;3.03;;;0.68;;
17504;SDS011;8870;50.950;11.762;2022-07-29T00:45:57;3.63;;;0.70;;
17504;SDS011;8870;50.950;11.762;2022-07-29T00:51:03;3.25;;;0.80;;
17504;SDS011;8870;50.950;11.762;2022-07-29T00:56:12;8.02;;;0.60;;
17504;SDS011;8870;50.950;11.762;2022-07-29T01:01:17;2.92;;;0.80;;
17504;SDS011;8870;50.950;11.762;2022-07-29T01:06:22;3.35;;;1.00;;
17504;SDS011;8870;50.950;11.762;2022-07-29T01:11:31;5.38;;;0.82;;
17504;SDS011;8870;50.950;11.762;2022-07-29T01:16:45;3.30;;;0.98;;
17504;SDS011;8870;50.950;11.762;2022-07-29T01:21:55;3.45;;;0.75;;
17504;SDS011;8870;50.950;11.762;2022-07-29T01:27:08;6.18;;;1.33;;
17504;SDS011;8870;50.950;11.762;2022-07-29T01:32:33;3.22;;;0.90;;
17504;SDS011;8870;50.950;11.762;2022-07-29T01:37:43;2.50;;;0.90;;
17504;SDS011;8870;50.950;11.762;2022-07-29T01:42:52;1.92;;;0.80;;
17504;SDS011;8870;50.950;11.762;2022-07-29T01:48:04;2.60;;;0.90;;
17504;SDS011;8870;50.950;11.762;2022-07-29T01:53:16;3.70;;;0.88;;
17504;SDS011;8870;50.950;11.762;2022-07-29T01:58:38;4.35;;;0.90;;
17504;SDS011;8870;50.950;11.762;2022-07-29T02:03:48;2.40;;;0.90;;
17504;SDS011;8870;50.950;11.762;2022-07-29T02:08:55;4.40;;;1.00;;
17504;SDS011;8870;50.950;11.762;2022-07-29T02:14:00;2.20;;;0.90;;
17504;SDS011;8870;50.950;11.762;2022-07-29T02:19:09;3.10;;;0.98;;
17504;SDS011;8870;50.950;11.762;2022-07-29T02:24:16;2.28;;;0.82;;
17504;SDS011;8870;50.950;11.762;2022-07-29T02:29:23;1.95;;;0.80;;
17504;SDS011;8870;50.950;11.762;2022-07-29T02:34:33;4.18;;;1.10;;
17504;SDS011;8870;50.950;11.762;2022-07-29T02:39:40;2.88;;;0.90;;
17504;SDS011;8870;50.950;11.762;2022-07-29T02:44:48;3.33;;;0.80;;
17504;SDS011;8870;50.950;11.762;2022-07-29T02:49:57;3.08;;;0.90;;
17504;SDS011;8870;50.950;11.762;2022-07-29T02:55:07;4.65;;;0.80;;
17504;SDS011;8870;50.950;11.762;2022-07-29T03:00:19;3.38;;;0.95;;
17504;SDS011;8870;50.950;11.762;2022-07-29T03:05:28;2.25;;;0.80;;
17504;SDS011;8870;50.950;11.762;2022-07-29T03:10:34;3.85;;;0.88;;
17504;SDS011;8870;50.950;11.762;2022-07-29T03:15:42;3.30;;;0.90;;
17504;SDS011;8870;50.950;11.762;2022-07-29T03:20:51;2.70;;;0.82;;
17504;SDS011;8870;50.950;11.762;2022-07-29T03:25:56;4.57;;;1.00;;
17504;SDS011;8870;50.950;11.762;2022-07-29T03:31:01;4.05;;;1.15;;
17504;SDS011;8870;50.950;11.762;2022-07-29T03:36:11;4.00;;;0.77;;
17504;SDS011;8870;50.950;11.762;2022-07-29T03:41:17;4.25;;;1.00;;
17504;SDS011;8870;50.950;11.762;2022-07-29T03:46:24;2.30;;;0.88;;
17504;SDS011;8870;50.950;11.762;2022-07-29T03:51:35;2.17;;;1.00;;
17504;SDS011;8870;50.950;11.762;2022-07-29T03:56:42;4.75;;;0.80;;
17504;SDS011;8870;50.950;11.762;2022-07-29T04:01:50;3.70;;;0.90;;
17504;SDS011;8870;50.950;11.762;2022-07-29T04:06:58;3.55;;;0.85;;
17504;SDS011;8870;50.950;11.762;2022-07-29T04:12:04;3.40;;;0.93;;
17504;SDS011;8870;50.950;11.762;2022-07-29T04:17:10;2.20;;;0.95;;
17504;SDS011;8870;50.950;11.762;2022-07-29T04:22:18;2.38;;;0.98;;
17504;SDS011;8870;50.950;11.762;2022-07-29T04:27:23;4.82;;;1.05;;
17504;SDS011;8870;50.950;11.762;2022-07-29T04:32:28;3.45;;;0.95;;
17504;SDS011;8870;50.950;11.762;2022-07-29T04:37:36;4.45;;;1.00;;
17504;SDS011;8870;50.950;11.762;2022-07-29T04:42:42;2.38;;;0.93;;
17504;SDS011;8870;50.950;11.762;2022-07-29T04:47:49;1.95;;;1.08;;
17504;SDS011;8870;50.950;11.762;2022-07-29T04:52:57;3.03;;;0.95;;
17504;SDS011;8870;50.950;11.762;2022-07-29T04:58:02;2.75;;;0.90;;
17504;SDS011;8870;50.950;11.762;2022-07-29T05:03:07;4.50;;;0.80;;
17504;SDS011;8870;50.950;11.762;2022-07-29T05:08:15;2.83;;;0.90;;
17504;SDS011;8870;50.950;11.762;2022-07-29T05:13:20;6.80;;;1.10;;
17504;SDS011;8870;50.950;11.762;2022-07-29T05:18:25;5.30;;;1.10;;
17504;SDS011;8870;50.950;11.762;2022-07-29T05:23:33;5.50;;;1.00;;
17504;SDS011;8870;50.950;11.762;2022-07-29T05:28:39;2.13;;;1.00;;
17504;SDS011;8870;50.950;11.762;2022-07-29T05:33:45;5.57;;;1.00;;
17504;SDS011;8870;50.950;11.762;2022-07-29T05:38:53;1.88;;;0.88;;
17504;SDS011;8870;50.950;11.762;2022-07-29T05:43:58;2.35;;;0.93;;
17504;SDS011;8870;50.950;11.762;2022-07-29T05:49:04;3.28;;;0.80;;
17504;SDS011;8870;50.950;11.762;2022-07-29T05:54:11;5.63;;;1.20;;
17504;SDS011;8870;50.950;11.762;2022-07-29T05:59:17;4.93;;;1.13;;
17504;SDS011;8870;50.950;11.762;2022-07-29T06:04:27;2.17;;;0.95;;
17504;SDS011;8870;50.950;11.762;2022-07-29T06:09:35;3.38;;;1.10;;
17504;SDS011;8870;50.950;11.762;2022-07-29T06:14:41;1.88;;;0.80;;
17504;SDS011;8870;50.950;11.762;2022-07-29T06:19:46;2.53;;;1.05;;
17504;SDS011;8870;50.950;11.762;2022-07-29T06:24:54;3.25;;;1.00;;
17504;SDS011;8870;50.950;11.762;2022-07-29T06:29:59;3.72;;;1.00;;
17504;SDS011;8870;50.950;11.762;2022-07-29T06:35:06;6.25;;;1.17;;
17504;SDS011;8870;50.950;11.762;2022-07-29T06:40:35;8.18;;;1.02;;
17504;SDS011;8870;50.950;11.762;2022-07-29T06:45:52;8.50;;;1.40;;
17504;SDS011;8870;50.950;11.762;2022-07-29T06:50:58;6.50;;;1.40;;
17504;SDS011;8870;50.950;11.762;2022-07-29T06:56:07;2.15;;;1.10;;
17504;SDS011;8870;50.950;11.762;2022-07-29T07:01:14;4.10;;;1.25;;
17504;SDS011;8870;50.950;11.762;2022-07-29T07:06:19;6.70;;;1.30;;
17504;SDS011;8870;50.950;11.762;2022-07-29T07:11:27;5.10;;;1.30;;
17504;SDS011;8870;50.950;11.762;2022-07-29T07:16:32;5.82;;;1.50;;
17504;SDS011;8870;50.950;11.762;2022-07-29T07:21:38;5.47;;;1.33;;
17504;SDS011;8870;50.950;11.762;2022-07-29T07:26:46;3.80;;;1.40;;
17504;SDS011;8870;50.950;11.762;2022-07-29T07:31:51;4.85;;;1.40;;
17504;SDS011;8870;50.950;11.762;2022-07-29T07:37:02;4.70;;;1.25;;
17504;SDS011;8870;50.950;11.762;2022-07-29T07:42:09;3.00;;;1.35;;
17504;SDS011;8870;50.950;11.762;2022-07-29T07:47:15;2.60;;;1.30;;
17504;SDS011;8870;50.950;11.762;2022-07-29T07:52:23;3.03;;;1.30;;
17504;SDS011;8870;50.950;11.762;2022-07-29T07:57:30;5.97;;;1.13;;
17504;SDS011;8870;50.950;11.762;2022-07-29T08:02:36;9.65;;;1.50;;
17504;SDS011;8870;50.950;11.762;2022-07-29T08:07:41;3.60;;;1.02;;
17504;SDS011;8870;50.950;11.762;2022-07-29T08:12:49;5.03;;;1.10;;
17504;SDS011;8870;50.950;11.762;2022-07-29T08:17:54;3.65;;;1.20;;
17504;SDS011;8870;50.950;11.762;2022-07-29T08:22:59;5.30;;;1.25;;
17504;SDS011;8870;50.950;11.762;2022-07-29T08:28:07;6.28;;;1.40;;
17504;SDS011;8870;50.950;11.762;2022-07-29T08:33:13;2.08;;;1.02;;
17504;SDS011;8870;50.950;11.762;2022-07-29T08:38:18;7.13;;;1.10;;
17504;SDS011;8870;50.950;11.762;2022-07-29T08:43:26;6.75;;;1.27;;
17504;SDS011;8870;50.950;11.762;2022-07-29T08:48:32;2.28;;;1.00;;
17504;SDS011;8870;50.950;11.762;2022-07-29T08:53:40;3.35;;;1.10;;
17504;SDS011;8870;50.950;11.762;2022-07-29T08:58:49;3.92;;;1.25;;
17504;SDS011;8870;50.950;11.762;2022-07-29T09:03:56;6.50;;;0.80;;
17504;SDS011;8870;50.950;11.762;2022-07-29T09:09:03;2.97;;;1.00;;
17504;SDS011;8870;50.950;11.762;2022-07-29T09:14:12;9.13;;;1.23;;
17504;SDS011;8870;50.950;11.762;2022-07-29T09:19:21;8.32;;;1.38;;
17504;SDS011;8870;50.950;11.762;2022-07-29T09:24:36;7.10;;;1.25;;
17504;SDS011;8870;50.950;11.762;2022-07-29T09:29:45;4.88;;;1.30;;
17504;SDS011;8870;50.950;11.762;2022-07-29T09:34:50;4.88;;;1.10;;
17504;SDS011;8870;50.950;11.762;2022-07-29T09:39:59;2.38;;;0.90;;
17504;SDS011;8870;50.950;11.762;2022-07-29T09:45:28;4.32;;;0.93;;
17504;SDS011;8870;50.950;11.762;2022-07-29T09:50:37;4.53;;;1.00;;
17504;SDS011;8870;50.950;11.762;2022-07-29T09:55:47;7.43;;;1.30;;
17504;SDS011;8870;50.950;11.762;2022-07-29T10:00:55;3.72;;;1.10;;
17504;SDS011;8870;50.950;11.762;2022-07-29T10:06:05;4.22;;;0.82;;
17504;SDS011;8870;50.950;11.762;2022-07-29T10:11:15;6.90;;;1.23;;
17504;SDS011;8870;50.950;11.762;2022-07-29T10:16:23;3.15;;;1.02;;
17504;SDS011;8870;50.950;11.762;2022-07-29T10:21:34;3.55;;;1.13;;
17504;SDS011;8870;50.950;11.762;2022-07-29T10:26:41;4.00;;;0.90;;
17504;SDS011;8870;50.950;11.762;2022-07-29T10:31:53;4.38;;;1.10;;
17504;SDS011;8870;50.950;11.762;2022-07-29T10:37:12;1.92;;;1.08;;
17504;SDS011;8870;50.950;11.762;2022-07-29T10:42:24;2.03;;;0.80;;
17504;SDS011;8870;50.950;11.762;2022-07-29T10:52:52;1.55;;;0.85;;
17504;SDS011;8870;50.950;11.762;2022-07-29T10:58:14;1.92;;;0.90;;
17504;SDS011;8870;50.950;11.762;2022-07-29T11:14:54;4.25;;;0.95;;
17504;SDS011;8870;50.950;11.762;2022-07-29T11:25:43;2.95;;;0.90;;
17504;SDS011;8870;50.950;11.762;2022-07-29T11:30:53;1.52;;;0.80;;
17504;SDS011;8870;50.950;11.762;2022-07-29T11:36:08;5.28;;;0.95;;
17504;SDS011;8870;50.950;11.762;2022-07-29T11:41:26;3.75;;;0.90;;
17504;SDS011;8870;50.950;11.762;2022-07-29T11:46:45;2.75;;;1.00;;
17504;SDS011;8870;50.950;11.762;2022-07-29T11:51:51;6.20;;;0.93;;
17504;SDS011;8870;50.950;11.762;2022-07-29T11:57:00;5.68;;;0.93;;
17504;SDS011;8870;50.950;11.762;2022-07-29T12:02:06;3.78;;;0.80;;
17504;SDS011;8870;50.950;11.762;2022-07-29T12:07:31;4.40;;;0.90;;
17504;SDS011;8870;50.950;11.762;2022-07-29T12:12:41;3.15;;;1.02;;
17504;SDS011;8870;50.950;11.762;2022-07-29T12:17:46;3.58;;;1.02;;
17504;SDS011;8870;50.950;11.762;2022-07-29T12:22:54;6.68;;;1.00;;
17504;SDS011;8870;50.950;11.762;2022-07-29T12:28:03;3.45;;;0.90;;
17504;SDS011;8870;50.950;11.762;2022-07-29T12:33:18;4.10;;;1.20;;
17504;SDS011;8870;50.950;11.762;2022-07-29T12:38:24;2.22;;;1.00;;
17504;SDS011;8870;50.950;11.762;2022-07-29T12:43:32;2.00;;;1.00;;
17504;SDS011;8870;50.950;11.762;2022-07-29T12:48:38;4.25;;;0.93;;
17504;SDS011;8870;50.950;11.762;2022-07-29T12:59:16;5.15;;;1.05;;
17504;SDS011;8870;50.950;11.762;2022-07-29T13:04:25;5.82;;;1.30;;
17504;SDS011;8870;50.950;11.762;2022-07-29T13:09:37;5.30;;;1.10;;
17504;SDS011;8870;50.950;11.762;2022-07-29T13:14:46;4.70;;;1.38;;
17504;SDS011;8870;50.950;11.762;2022-07-29T13:19:52;3.17;;;1.35;;
17504;SDS011;8870;50.950;11.762;2022-07-29T13:25:10;2.50;;;1.10;;
17504;SDS011;8870;50.950;11.762;2022-07-29T13:30:18;5.55;;;1.20;;
17504;SDS011;8870;50.950;11.762;2022-07-29T13:35:23;2.95;;;1.10;;
17504;SDS011;8870;50.950;11.762;2022-07-29T13:40:31;2.63;;;1.00;;
17504;SDS011;8870;50.950;11.762;2022-07-29T13:45:39;4.47;;;1.10;;
17504;SDS011;8870;50.950;11.762;2022-07-29T13:50:44;5.75;;;1.15;;
17504;SDS011;8870;50.950;11.762;2022-07-29T13:55:50;5.57;;;1.30;;
17504;SDS011;8870;50.950;11.762;2022-07-29T14:00:58;3.55;;;1.00;;
17504;SDS011;8870;50.950;11.762;2022-07-29T14:06:04;1.98;;;0.90;;
17504;SDS011;8870;50.950;11.762;2022-07-29T14:11:09;1.50;;;0.63;;
17504;SDS011;8870;50.950;11.762;2022-07-29T14:16:16;1.52;;;0.90;;
17504;SDS011;8870;50.950;11.762;2022-07-29T14:21:21;2.28;;;0.95;;
17504;SDS011;8870;50.950;11.762;2022-07-29T14:26:26;2.38;;;0.90;;
17504;SDS011;8870;50.950;11.762;2022-07-29T14:31:35;1.70;;;0.80;;
17504;SDS011;8870;50.950;11.762;2022-07-29T14:36:40;1.38;;;0.80;;
17504;SDS011;8870;50.950;11.762;2022-07-29T14:41:46;0.93;;;0.70;;
17504;SDS011;8870;50.950;11.762;2022-07-29T14:46:53;1.88;;;0.88;;
17504;SDS011;8870;50.950;11.762;2022-07-29T14:51:58;3.00;;;0.60;;
17504;SDS011;8870;50.950;11.762;2022-07-29T14:57:03;4.85;;;0.80;;
17504;SDS011;8870;50.950;11.762;2022-07-29T15:02:10;1.52;;;0.70;;
17504;SDS011;8870;50.950;11.762;2022-07-29T15:07:16;1.45;;;0.63;;
17504;SDS011;8870;50.950;11.762;2022-07-29T15:12:21;2.05;;;0.50;;
17504;SDS011;8870;50.950;11.762;2022-07-29T15:17:28;2.15;;;0.60;;
17504;SDS011;8870;50.950;11.762;2022-07-29T15:22:33;1.13;;;0.70;;
17504;SDS011;8870;50.950;11.762;2022-07-29T15:27:39;1.92;;;0.75;;
17504;SDS011;8870;50.950;11.762;2022-07-29T15:32:55;2.70;;;0.80;;
17504;SDS011;8870;50.950;11.762;2022-07-29T15:38:00;1.40;;;0.60;;
17504;SDS011;8870;50.950;11.762;2022-07-29T15:43:06;3.17;;;0.70;;
17504;SDS011;8870;50.950;11.762;2022-07-29T15:48:14;4.13;;;0.60;;
17504;SDS011;8870;50.950;11.762;2022-07-29T15:53:19;1.23;;;0.65;;
17504;SDS011;8870;50.950;11.762;2022-07-29T15:58:24;3.22;;;0.80;;
17504;SDS011;8870;50.950;11.762;2022-07-29T16:03:31;1.77;;;0.73;;
17504;SDS011;8870;50.950;11.762;2022-07-29T16:08:36;2.77;;;0.70;;
17504;SDS011;8870;50.950;11.762;2022-07-29T16:13:42;1.98;;;0.80;;
17504;SDS011;8870;50.950;11.762;2022-07-29T16:18:49;4.88;;;0.80;;
17504;SDS011;8870;50.950;11.762;2022-07-29T16:23:54;2.08;;;0.60;;
17504;SDS011;8870;50.950;11.762;2022-07-29T16:28:59;1.77;;;0.60;;
17504;SDS011;8870;50.950;11.762;2022-07-29T16:34:07;3.08;;;0.60;;
17504;SDS011;8870;50.950;11.762;2022-07-29T16:39:14;2.73;;;0.60;;
17504;SDS011;8870;50.950;11.762;2022-07-29T16:44:21;2.78;;;0.65;;
17504;SDS011;8870;50.950;11.762;2022-07-29T16:49:30;1.05;;;0.50;;
17504;SDS011;8870;50.950;11.762;2022-07-29T16:54:35;1.50;;;0.47;;
17504;SDS011;8870;50.950;11.762;2022-07-29T16:59:41;1.98;;;0.80;;
17504;SDS011;8870;50.950;11.762;2022-07-29T17:04:49;1.33;;;0.70;;
17504;SDS011;8870;50.950;11.762;2022-07-29T17:09:54;5.07;;;0.60;;
17504;SDS011;8870;50.950;11.762;2022-07-29T17:15:05;2.33;;;0.50;;
17504;SDS011;8870;50.950;11.762;2022-07-29T17:20:14;1.92;;;0.70;;
17504;SDS011;8870;50.950;11.762;2022-07-29T17:25:20;0.80;;;0.55;;
17504;SDS011;8870;50.950;11.762;2022-07-29T17:30:25;1.90;;;0.70;;
17504;SDS011;8870;50.950;11.762;2022-07-29T17:35:33;1.98;;;0.70;;
17504;SDS011;8870;50.950;11.762;2022-07-29T17:40:50;0.73;;;0.60;;
17504;SDS011;8870;50.950;11.762;2022-07-29T17:45:55;1.73;;;0.70;;
17504;SDS011;8870;50.950;11.762;2022-07-29T17:51:03;0.88;;;0.60;;
17504;SDS011;8870;50.950;11.762;2022-07-29T17:56:09;0.98;;;0.80;;
17504;SDS011;8870;50.950;11.762;2022-07-29T18:01:19;1.15;;;0.80;;
17504;SDS011;8870;50.950;11.762;2022-07-29T18:06:29;3.00;;;0.70;;
17504;SDS011;8870;50.950;11.762;2022-07-29T18:11:34;1.50;;;0.80;;
17504;SDS011;8870;50.950;11.762;2022-07-29T18:16:44;1.27;;;0.70;;
17504;SDS011;8870;50.950;11.762;2022-07-29T18:21:52;2.03;;;0.60;;
17504;SDS011;8870;50.950;11.762;2022-07-29T18:27:05;1.55;;;0.70;;
17504;SDS011;8870;50.950;11.762;2022-07-29T18:32:10;1.35;;;0.70;;
17504;SDS011;8870;50.950;11.762;2022-07-29T18:37:18;1.40;;;0.68;;
17504;SDS011;8870;50.950;11.762;2022-07-29T18:42:43;2.42;;;0.60;;
17504;SDS011;8870;50.950;11.762;2022-07-29T18:47:48;1.35;;;0.65;;
17504;SDS011;8870;50.950;11.762;2022-07-29T18:52:56;2.28;;;0.68;;
17504;SDS011;8870;50.950;11.762;2022-07-29T18:58:03;1.23;;;0.70;;
17504;SDS011;8870;50.950;11.762;2022-07-29T19:03:09;3.45;;;0.68;;
17504;SDS011;8870;50.950;11.762;2022-07-29T19:08:17;1.30;;;0.60;;
17504;SDS011;8870;50.950;11.762;2022-07-29T19:13:22;0.68;;;0.60;;
17504;SDS011;8870;50.950;11.762;2022-07-29T19:18:27;0.57;;;0.40;;
17504;SDS011;8870;50.950;11.762;2022-07-29T19:23:35;3.13;;;0.60;;
17504;SDS011;8870;50.950;11.762;2022-07-29T19:29:00;1.23;;;0.77;;
17504;SDS011;8870;50.950;11.762;2022-07-29T19:34:05;1.08;;;0.50;;
17504;SDS011;8870;50.950;11.762;2022-07-29T19:39:13;2.47;;;0.68;;
17504;SDS011;8870;50.950;11.762;2022-07-29T19:44:35;0.85;;;0.40;;
17504;SDS011;8870;50.950;11.762;2022-07-29T19:49:40;0.77;;;0.50;;
17504;SDS011;8870;50.950;11.762;2022-07-29T19:54:48;0.47;;;0.40;;
17504;SDS011;8870;50.950;11.762;2022-07-29T19:59:53;1.23;;;0.50;;
17504;SDS011;8870;50.950;11.762;2022-07-29T20:04:58;0.90;;;0.57;;
17504;SDS011;8870;50.950;11.762;2022-07-29T20:10:07;0.95;;;0.60;;
17504;SDS011;8870;50.950;11.762;2022-07-29T20:15:13;1.52;;;0.70;;
17504;SDS011;8870;50.950;11.762;2022-07-29T20:20:18;1.73;;;0.70;;
17504;SDS011;8870;50.950;11.762;2022-07-29T20:25:26;0.88;;;0.60;;
17504;SDS011;8870;50.950;11.762;2022-07-29T20:30:31;3.53;;;0.85;;
17504;SDS011;8870;50.950;11.762;2022-07-29T20:35:39;1.02;;;0.60;;
17504;SDS011;8870;50.950;11.762;2022-07-29T20:40:46;0.73;;;0.43;;
17504;SDS011;8870;50.950;11.762;2022-07-29T20:45:53;1.70;;;0.75;;
17504;SDS011;8870;50.950;11.762;2022-07-29T20:50:58;0.82;;;0.50;;
17504;SDS011;8870;50.950;11.762;2022-07-29T20:56:06;1.20;;;0.60;;
17504;SDS011;8870;50.950;11.762;2022-07-29T21:01:13;0.82;;;0.65;;
17504;SDS011;8870;50.950;11.762;2022-07-29T21:06:18;2.05;;;0.70;;
17504;SDS011;8870;50.950;11.762;2022-07-29T21:11:26;0.60;;;0.60;;
17504;SDS011;8870;50.950;11.762;2022-07-29T21:16:45;0.52;;;0.50;;
17504;SDS011;8870;50.950;11.762;2022-07-29T21:21:50;3.70;;;0.50;;
17504;SDS011;8870;50.950;11.762;2022-07-29T21:26:58;1.70;;;0.70;;
17504;SDS011;8870;50.950;11.762;2022-07-29T21:32:22;2.78;;;0.50;;
17504;SDS011;8870;50.950;11.762;2022-07-29T21:37:31;1.52;;;0.50;;
17504;SDS011;8870;50.950;11.762;2022-07-29T21:42:38;0.75;;;0.50;;
17504;SDS011;8870;50.950;11.762;2022-07-29T21:47:45;0.80;;;0.60;;
17504;SDS011;8870;50.950;11.762;2022-07-29T21:52:51;2.33;;;0.60;;
17504;SDS011;8870;50.950;11.762;2022-07-29T21:57:59;1.40;;;0.70;;
17504;SDS011;8870;50.950;11.762;2022-07-29T22:03:04;0.52;;;0.52;;
17504;SDS011;8870;50.950;11.762;2022-07-29T22:08:09;0.80;;;0.55;;
17504;SDS011;8870;50.950;11.762;2022-07-29T22:13:17;0.80;;;0.63;;
17504;SDS011;8870;50.950;11.762;2022-07-29T22:18:22;1.25;;;0.77;;
17504;SDS011;8870;50.950;11.762;2022-07-29T22:23:27;1.85;;;0.60;;
17504;SDS011;8870;50.950;11.762;2022-07-29T22:28:35;1.00;;;0.80;;
17504;SDS011;8870;50.950;11.762;2022-07-29T22:33:41;0.85;;;0.60;;
17504;SDS011;8870;50.950;11.762;2022-07-29T22:38:48;1.08;;;0.60;;
17504;SDS011;8870;50.950;11.762;2022-07-29T22:43:56;0.63;;;0.60;;
17504;SDS011;8870;50.950;11.762;2022-07-29T22:49:01;1.73;;;0.65;;
17504;SDS011;8870;50.950;11.762;2022-07-29T22:54:06;0.95;;;0.70;;
17504;SDS011;8870;50.950;11.762;2022-07-29T22:59:14;0.60;;;0.60;;
17504;SDS011;8870;50.950;11.762;2022-07-29T23:04:19;0.93;;;0.70;;
17504;SDS011;8870;50.950;11.762;2022-07-29T23:09:25;2.50;;;0.73;;
17504;SDS011;8870;50.950;11.762;2022-07-29T23:14:33;1.45;;;0.70;;
17504;SDS011;8870;50.950;11.762;2022-07-29T23:19:38;0.85;;;0.68;;
17504;SDS011;8870;50.950;11.762;2022-07-29T23:24:45;1.27;;;0.75;;
17504;SDS011;8870;50.950;11.762;2022-07-29T23:29:53;0.85;;;0.70;;
17504;SDS011;8870;50.950;11.762;2022-07-29T23:34:58;3.00;;;0.80;;
17504;SDS011;8870;50.950;11.762;2022-07-29T23:40:06;2.45;;;0.90;;
17504;SDS011;8870;50.950;11.762;2022-07-29T23:45:18;1.30;;;0.75;;
17504;SDS011;8870;50.950;11.762;2022-07-29T23:50:40;1.00;;;0.70;;
17504;SDS011;8870;50.950;11.762;2022-07-29T23:55:45;1.52;;;0.70;;
